Time;durP1;ratioP1;P1;durP2;ratioP2;P2;SDS_P1;SDS_P2;PMS_P1;PMS_P2;Temp;Humidity;BMP_temperature;BMP_pressure;BME280_temperature;BME280_humidity;BME280_pressure;Samples;Min_cycle;Max_cycle;Signal;HPM_P1;HPM_P2
2022/09/06 00:01:58;;;;;;;;;;;21.40;99.90;;;;;;5089444;28;19911;-78
2022/09/06 00:04:24;;;;;;;;;;;21.40;99.90;;;;;;5090663;28;19905;-78
2022/09/06 00:06:49;;;;;;;;;;;21.40;99.90;;;;;;5089177;28;19897;-77
2022/09/06 00:09:15;;;;;;;;;;;21.40;99.90;;;;;;5090625;28;20093;-78
2022/09/06 00:11:40;;;;;;;;;;;21.40;99.90;;;;;;5090733;28;19954;-77
2022/09/06 00:14:06;;;;;;;;;;;21.50;99.90;;;;;;5089945;28;19900;-76
2022/09/06 00:16:32;;;;;;;;;;;21.40;99.90;;;;;;5090533;28;19928;-77
2022/09/06 00:18:57;;;;;;;;;;;21.50;99.90;;;;;;5076615;28;19924;-78
2022/09/06 00:21:24;;;;;;;;;;;21.50;99.90;;;;;;5086379;28;19912;-74
2022/09/06 00:23:50;;;;;;;;;;;21.40;99.90;;;;;;5088994;28;19970;-78
2022/09/06 00:26:16;;;;;;;;;;;21.40;99.90;;;;;;5091193;28;19916;-78
2022/09/06 00:28:42;;;;;;;;;;;21.30;99.90;;;;;;5091311;28;19920;-78
2022/09/06 00:31:19;;;;;;;;;;;21.40;99.90;;;;;;5091875;28;19905;-78
2022/09/06 00:33:45;;;;;;;;;;;21.30;99.90;;;;;;5100030;28;19916;-78
2022/09/06 00:36:11;;;;;;;;;;;21.30;99.90;;;;;;5073298;28;19918;-79
2022/09/06 00:38:37;;;;;;;;;;;21.30;99.90;;;;;;5087247;28;19916;-78
2022/09/06 00:41:04;;;;;;;;;;;21.30;99.90;;;;;;5086778;28;19919;-77
2022/09/06 00:43:30;;;;;;;;;;;21.20;99.90;;;;;;5087716;28;19960;-77
2022/09/06 00:45:56;;;;;;;;;;;21.20;99.90;;;;;;5087564;28;19984;-74
2022/09/06 00:48:22;;;;;;;;;;;21.30;99.90;;;;;;5090063;28;19900;-78
2022/09/06 00:50:49;;;;;;;;;;;21.30;99.90;;;;;;5093060;28;19911;-78
2022/09/06 00:53:14;;;;;;;;;;;21.40;99.90;;;;;;5089500;28;19912;-76
2022/09/06 00:55:41;;;;;;;;;;;21.40;99.90;;;;;;5089816;28;19947;-75
2022/09/06 00:58:08;;;;;;;;;;;21.30;99.90;;;;;;5074105;28;20015;-77
2022/09/06 01:00:33;;;;;;;;;;;21.20;99.90;;;;;;5088687;28;19927;-78
2022/09/06 01:02:59;;;;;;;;;;;21.20;99.90;;;;;;5090847;28;19912;-79
2022/09/06 01:05:41;;;;;;;;;;;21.10;99.90;;;;;;5090423;28;19907;-78
2022/09/06 01:08:19;;;;;;;;;;;21.10;99.90;;;;;;5102845;28;19990;-77
2022/09/06 01:10:51;;;;;;;;;;;21.20;99.90;;;;;;5098204;28;19911;-78
2022/09/06 01:13:26;;;;;;;;;;;21.10;99.90;;;;;;5081955;28;19900;-79
2022/09/06 01:15:57;;;;;;;;;;;21.10;99.90;;;;;;5096926;28;19896;-79
2022/09/06 01:18:49;;;;;;;;;;;21.10;99.90;;;;;;5079550;28;19911;-76
2022/09/06 01:21:15;;;;;;;;;;;21.10;99.90;;;;;;5090819;28;19903;-80
2022/09/06 01:23:56;;;;;;;;;;;21.00;99.90;;;;;;5091435;28;20011;-78
2022/09/06 01:26:40;;;;;;;;;;;21.00;99.90;;;;;;5089383;28;19900;-79
2022/09/06 01:29:12;;;;;;;;;;;21.10;99.90;;;;;;5089570;28;19912;-76
2022/09/06 01:31:40;;;;;;;;;;;21.10;99.90;;;;;;5065569;28;19900;-77
2022/09/06 01:34:06;;;;;;;;;;;21.10;99.90;;;;;;5090735;28;20013;-79
2022/09/06 01:36:33;;;;;;;;;;;21.10;99.90;;;;;;5073577;28;19912;-78
2022/09/06 01:39:00;;;;;;;;;;;21.00;99.90;;;;;;5089708;28;19900;-78
2022/09/06 01:41:26;;;;;;;;;;;21.00;99.90;;;;;;5088370;28;19901;-76
2022/09/06 01:43:52;;;;;;;;;;;21.00;99.90;;;;;;5088135;28;19919;-79
2022/09/06 01:46:38;;;;;;;;;;;21.00;99.90;;;;;;5088457;28;19967;-77
2022/09/06 01:49:03;;;;;;;;;;;21.00;99.90;;;;;;5071567;28;19908;-78
2022/09/06 01:52:08;;;;;;;;;;;21.00;99.90;;;;;;5086901;28;19919;-77
2022/09/06 01:54:33;;;;;;;;;;;21.00;99.90;;;;;;4987241;28;19957;-79
2022/09/06 01:56:59;;;;;;;;;;;21.00;99.90;;;;;;4988910;28;19950;-77
2022/09/06 01:59:36;;;;;;;;;;;21.10;99.90;;;;;;5035914;28;19936;-78
2022/09/06 02:02:07;;;;;;;;;;;21.10;99.90;;;;;;5087273;28;19951;-78
2022/09/06 02:04:32;;;;;;;;;;;21.00;99.90;;;;;;5088598;28;19912;-76
2022/09/06 02:07:00;;;;;;;;;;;21.20;99.90;;;;;;5090712;28;19923;-79
2022/09/06 02:09:28;;;;;;;;;;;21.20;99.90;;;;;;5075676;28;19907;-77
2022/09/06 02:11:55;;;;;;;;;;;21.20;99.90;;;;;;5090411;28;19912;-76
2022/09/06 02:14:32;;;;;;;;;;;21.20;99.90;;;;;;5094337;28;19907;-77
2022/09/06 02:16:58;;;;;;;;;;;21.10;99.90;;;;;;5093426;28;19923;-79
2022/09/06 02:19:34;;;;;;;;;;;21.00;99.90;;;;;;5088936;28;19920;-78
2022/09/06 02:22:00;;;;;;;;;;;20.90;99.90;;;;;;5088016;28;19923;-77
2022/09/06 02:24:28;;;;;;;;;;;20.90;99.90;;;;;;5074021;28;19968;-77
2022/09/06 02:26:54;;;;;;;;;;;20.90;99.90;;;;;;5094252;28;19897;-77
2022/09/06 02:29:20;;;;;;;;;;;20.80;99.90;;;;;;5089876;28;19923;-76
2022/09/06 02:31:58;;;;;;;;;;;20.80;99.90;;;;;;5090036;28;19901;-76
2022/09/06 02:34:23;;;;;;;;;;;20.80;99.90;;;;;;5090853;28;19917;-77
2022/09/06 02:36:49;;;;;;;;;;;20.80;99.90;;;;;;5093166;28;19920;-74
2022/09/06 02:39:15;;;;;;;;;;;20.80;99.90;;;;;;5090918;28;19919;-77
2022/09/06 02:41:42;;;;;;;;;;;20.80;99.90;;;;;;5090022;28;19920;-77
2022/09/06 02:44:08;;;;;;;;;;;20.80;99.90;;;;;;5093084;28;19913;-76
2022/09/06 02:46:33;;;;;;;;;;;20.70;99.90;;;;;;5091112;28;19954;-77
2022/09/06 02:48:59;;;;;;;;;;;20.70;99.90;;;;;;5087478;28;19909;-77
2022/09/06 02:51:25;;;;;;;;;;;20.70;99.90;;;;;;5080824;28;19909;-74
2022/09/06 02:53:50;;;;;;;;;;;20.70;99.90;;;;;;5078765;28;19912;-74
2022/09/06 02:56:16;;;;;;;;;;;20.60;99.90;;;;;;5082575;28;19896;-78
2022/09/06 02:58:42;;;;;;;;;;;20.50;99.90;;;;;;5060741;28;20271;-74
2022/09/06 03:01:08;;;;;;;;;;;20.40;99.90;;;;;;5093124;28;19917;-78
2022/09/06 03:03:33;;;;;;;;;;;20.40;99.90;;;;;;5076999;28;19927;-75
2022/09/06 03:05:59;;;;;;;;;;;20.40;99.90;;;;;;5090920;28;19923;-77
2022/09/06 03:08:25;;;;;;;;;;;20.30;99.90;;;;;;5092128;28;19900;-74
2022/09/06 03:10:52;;;;;;;;;;;20.30;99.90;;;;;;5103863;28;19904;-77
2022/09/06 03:13:17;;;;;;;;;;;20.20;99.90;;;;;;5097326;28;20409;-75
2022/09/06 03:15:43;;;;;;;;;;;20.20;99.90;;;;;;5084960;28;19959;-76
2022/09/06 03:18:09;;;;;;;;;;;20.30;99.90;;;;;;5089594;28;19924;-77
2022/09/06 03:20:34;;;;;;;;;;;20.40;99.90;;;;;;5074968;28;20363;-75
2022/09/06 03:23:00;;;;;;;;;;;20.40;99.90;;;;;;5067352;28;19914;-74
2022/09/06 03:25:25;;;;;;;;;;;20.30;99.90;;;;;;5066262;28;19916;-74
2022/09/06 03:27:51;;;;;;;;;;;20.30;99.90;;;;;;5071270;28;19912;-73
2022/09/06 03:30:17;;;;;;;;;;;20.30;99.90;;;;;;5069311;28;19909;-74
2022/09/06 03:32:43;;;;;;;;;;;20.30;99.90;;;;;;5075891;28;19923;-77
2022/09/06 03:35:09;;;;;;;;;;;20.20;99.90;;;;;;5086576;28;19927;-73
2022/09/06 03:37:35;;;;;;;;;;;20.10;99.90;;;;;;5078837;28;19908;-76
2022/09/06 03:40:01;;;;;;;;;;;20.20;99.90;;;;;;5068302;28;19916;-75
2022/09/06 03:42:27;;;;;;;;;;;20.20;99.90;;;;;;5071775;28;19920;-74
2022/09/06 03:44:53;;;;;;;;;;;20.30;99.90;;;;;;5069331;28;19990;-76
2022/09/06 03:47:19;;;;;;;;;;;20.40;99.90;;;;;;5069160;28;19916;-74
2022/09/06 03:49:44;;;;;;;;;;;20.40;99.90;;;;;;5063444;28;20289;-77
2022/09/06 03:52:10;;;;;;;;;;;20.40;99.90;;;;;;5090575;28;19912;-78
2022/09/06 03:54:36;;;;;;;;;;;20.40;99.90;;;;;;5085201;28;19924;-77
2022/09/06 03:57:01;;;;;;;;;;;20.40;99.90;;;;;;5080920;28;19932;-74
2022/09/06 03:59:27;;;;;;;;;;;20.40;99.90;;;;;;5070410;28;19971;-73
2022/09/06 04:01:53;;;;;;;;;;;20.40;99.90;;;;;;5069885;28;19912;-73
2022/09/06 04:04:18;;;;;;;;;;;20.50;99.90;;;;;;5068778;28;19908;-77
2022/09/06 04:06:44;;;;;;;;;;;20.40;99.90;;;;;;5094659;28;20175;-76
2022/09/06 04:09:10;;;;;;;;;;;20.40;99.90;;;;;;5096002;28;19908;-78
2022/09/06 04:11:36;;;;;;;;;;;20.30;99.90;;;;;;5095582;28;19919;-75
2022/09/06 04:14:01;;;;;;;;;;;20.30;99.90;;;;;;5082599;28;19964;-76
2022/09/06 04:16:27;;;;;;;;;;;20.30;99.90;;;;;;5093994;28;19892;-78
2022/09/06 04:18:53;;;;;;;;;;;20.30;99.90;;;;;;5093821;28;19912;-76
2022/09/06 04:21:18;;;;;;;;;;;20.30;99.90;;;;;;5064236;28;19892;-77
2022/09/06 04:23:44;;;;;;;;;;;20.30;99.90;;;;;;5117572;28;19912;-77
2022/09/06 04:26:10;;;;;;;;;;;20.30;99.90;;;;;;5116548;28;19930;-78
2022/09/06 04:28:35;;;;;;;;;;;20.30;99.90;;;;;;5115949;28;19911;-77
2022/09/06 04:31:02;;;;;;;;;;;20.40;99.90;;;;;;5097821;28;19904;-76
2022/09/06 04:33:28;;;;;;;;;;;20.40;99.90;;;;;;5114958;28;19919;-75
2022/09/06 04:35:57;;;;;;;;;;;20.30;99.90;;;;;;5113337;28;19919;-76
2022/09/06 04:38:27;;;;;;;;;;;20.30;99.90;;;;;;5093637;28;19996;-77
2022/09/06 04:40:54;;;;;;;;;;;20.30;99.90;;;;;;5079645;28;19930;-73
2022/09/06 04:43:20;;;;;;;;;;;20.30;99.90;;;;;;5074915;28;19927;-76
2022/09/06 04:45:45;;;;;;;;;;;20.30;99.90;;;;;;5055999;28;20366;-74
2022/09/06 04:48:11;;;;;;;;;;;20.30;99.90;;;;;;5073738;28;19904;-73
2022/09/06 04:50:37;;;;;;;;;;;20.40;99.90;;;;;;5073306;28;19910;-76
2022/09/06 04:53:03;;;;;;;;;;;20.40;99.90;;;;;;5073403;28;19948;-75
2022/09/06 04:55:30;;;;;;;;;;;20.40;99.90;;;;;;5073222;28;20235;-77
2022/09/06 04:57:58;;;;;;;;;;;20.40;99.90;;;;;;5055546;28;19904;-73
2022/09/06 05:00:27;;;;;;;;;;;20.40;99.90;;;;;;5077858;28;19904;-74
2022/09/06 05:02:53;;;;;;;;;;;20.50;99.90;;;;;;5058384;28;19911;-74
2022/09/06 05:05:19;;;;;;;;;;;20.60;99.90;;;;;;5072694;28;19904;-74
2022/09/06 05:07:45;;;;;;;;;;;20.60;99.90;;;;;;5055253;28;19904;-73
2022/09/06 05:10:10;;;;;;;;;;;20.60;99.90;;;;;;5070244;28;20347;-75
2022/09/06 05:12:36;;;;;;;;;;;20.60;99.90;;;;;;5040866;28;19963;-74
2022/09/06 05:15:02;;;;;;;;;;;20.60;99.90;;;;;;5065671;28;20039;-74
2022/09/06 05:17:27;;;;;;;;;;;20.60;99.90;;;;;;5070229;28;19916;-72
2022/09/06 05:19:53;;;;;;;;;;;20.60;99.90;;;;;;5074149;28;19995;-76
2022/09/06 05:22:18;;;;;;;;;;;20.70;99.90;;;;;;5072407;28;19965;-74
2022/09/06 05:24:45;;;;;;;;;;;20.70;99.90;;;;;;5072011;28;19912;-74
2022/09/06 05:27:11;;;;;;;;;;;20.70;99.90;;;;;;5069430;28;19904;-73
2022/09/06 05:29:37;;;;;;;;;;;20.90;99.90;;;;;;5052237;28;19912;-75
2022/09/06 05:32:03;;;;;;;;;;;21.00;99.90;;;;;;5071911;28;19904;-74
2022/09/06 05:34:28;;;;;;;;;;;21.10;99.90;;;;;;5054490;28;19966;-74
2022/09/06 05:36:54;;;;;;;;;;;21.20;99.90;;;;;;5073012;28;19950;-75
2022/09/06 05:39:20;;;;;;;;;;;21.30;99.90;;;;;;5071880;28;20350;-78
2022/09/06 05:41:46;;;;;;;;;;;21.40;99.90;;;;;;5054299;28;19911;-75
2022/09/06 05:44:13;;;;;;;;;;;21.40;99.90;;;;;;5071920;28;19991;-74
2022/09/06 05:46:42;;;;;;;;;;;21.50;99.90;;;;;;5054093;28;19908;-74
2022/09/06 05:49:09;;;;;;;;;;;21.50;99.90;;;;;;5072141;28;19904;-76
2022/09/06 05:51:34;;;;;;;;;;;21.60;99.90;;;;;;5072290;28;20374;-75
2022/09/06 05:54:00;;;;;;;;;;;21.60;99.90;;;;;;5071858;28;19909;-76
2022/09/06 05:56:26;;;;;;;;;;;21.70;99.90;;;;;;5072519;28;20036;-74
2022/09/06 05:58:51;;;;;;;;;;;21.60;99.90;;;;;;5071587;28;19969;-74
2022/09/06 06:01:18;;;;;;;;;;;21.70;99.90;;;;;;5072246;28;19957;-74
2022/09/06 06:03:51;;;;;;;;;;;21.90;99.90;;;;;;5072545;28;19912;-73
2022/09/06 06:06:18;;;;;;;;;;;21.90;99.90;;;;;;5071746;28;19911;-74
2022/09/06 06:08:43;;;;;;;;;;;21.90;99.90;;;;;;5072005;28;20300;-73
2022/09/06 06:11:09;;;;;;;;;;;21.90;99.90;;;;;;5073138;28;19984;-74
2022/09/06 06:13:38;;;;;;;;;;;22.10;99.90;;;;;;5078130;28;20346;-75
2022/09/06 06:16:05;;;;;;;;;;;22.10;99.90;;;;;;5068206;28;20348;-76
2022/09/06 06:18:30;;;;;;;;;;;22.30;99.90;;;;;;5064431;28;19913;-75
2022/09/06 06:21:25;;;;;;;;;;;22.30;99.90;;;;;;5068375;28;20397;-74
2022/09/06 06:23:52;;;;;;;;;;;22.40;99.90;;;;;;5049333;28;19955;-75
2022/09/06 06:26:18;;;;;;;;;;;22.50;99.90;;;;;;5053429;28;19926;-74
2022/09/06 06:28:43;;;;;;;;;;;22.60;99.90;;;;;;5068140;28;19912;-74
2022/09/06 06:31:10;;;;;;;;;;;22.70;99.90;;;;;;5049799;28;19917;-74
2022/09/06 06:33:37;;;;;;;;;;;22.90;99.90;;;;;;5075977;28;19913;-74
2022/09/06 06:36:04;;;;;;;;;;;23.00;99.90;;;;;;5073633;28;19912;-73
2022/09/06 06:38:33;;;;;;;;;;;23.00;99.90;;;;;;5058000;28;20366;-75
2022/09/06 06:40:59;;;;;;;;;;;23.10;99.90;;;;;;5074450;28;19915;-73
2022/09/06 06:43:25;;;;;;;;;;;23.20;99.90;;;;;;5052733;28;19909;-74
2022/09/06 06:45:54;;;;;;;;;;;23.40;99.90;;;;;;5075514;28;19905;-76
2022/09/06 06:48:20;;;;;;;;;;;23.40;99.90;;;;;;5072416;28;20377;-75
2022/09/06 06:50:51;;;;;;;;;;;23.50;99.90;;;;;;5082847;28;19958;-73
2022/09/06 06:53:18;;;;;;;;;;;23.60;99.90;;;;;;5066279;28;19922;-73
2022/09/06 06:55:47;;;;;;;;;;;23.80;99.90;;;;;;5075009;28;19908;-74
2022/09/06 06:58:14;;;;;;;;;;;23.80;99.90;;;;;;5077379;28;19904;-74
2022/09/06 07:00:40;;;;;;;;;;;23.80;99.90;;;;;;5056058;28;20008;-74
2022/09/06 07:03:06;;;;;;;;;;;24.00;99.90;;;;;;5084500;28;19932;-75
2022/09/06 07:05:32;;;;;;;;;;;24.00;99.90;;;;;;5085707;28;19908;-75
2022/09/06 07:07:58;;;;;;;;;;;24.00;99.90;;;;;;5073089;28;19908;-72
2022/09/06 07:10:24;;;;;;;;;;;24.00;99.90;;;;;;5075348;28;19908;-70
2022/09/06 07:12:50;;;;;;;;;;;24.10;99.90;;;;;;5083122;28;19908;-70
2022/09/06 07:15:16;;;;;;;;;;;24.20;99.90;;;;;;5082303;28;19916;-70
2022/09/06 07:17:42;;;;;;;;;;;24.30;99.90;;;;;;5087648;28;20172;-70
2022/09/06 07:20:09;;;;;;;;;;;24.30;99.90;;;;;;5081994;28;19972;-70
2022/09/06 07:22:35;;;;;;;;;;;24.40;99.90;;;;;;5080402;28;19915;-72
2022/09/06 07:25:01;;;;;;;;;;;24.50;99.90;;;;;;5072735;28;20003;-70
2022/09/06 07:27:27;;;;;;;;;;;24.50;99.90;;;;;;5069358;28;20536;-69
2022/09/06 07:29:52;;;;;;;;;;;24.60;99.90;;;;;;5072550;28;19944;-68
2022/09/06 07:32:18;;;;;;;;;;;24.60;99.90;;;;;;5071889;28;19916;-69
2022/09/06 07:34:44;;;;;;;;;;;24.60;99.90;;;;;;5070017;28;20138;-69
2022/09/06 07:37:09;;;;;;;;;;;24.70;99.90;;;;;;5068761;28;20468;-70
2022/09/06 07:39:35;;;;;;;;;;;24.80;99.90;;;;;;5076148;28;19920;-71
2022/09/06 07:42:02;;;;;;;;;;;24.70;99.90;;;;;;5086510;28;19911;-70
2022/09/06 07:44:28;;;;;;;;;;;24.70;99.90;;;;;;5071384;28;19916;-69
2022/09/06 07:46:54;;;;;;;;;;;24.70;99.90;;;;;;5054067;28;19915;-71
2022/09/06 07:49:19;;;;;;;;;;;24.80;99.90;;;;;;5072377;28;20006;-70
2022/09/06 07:51:46;;;;;;;;;;;24.80;99.90;;;;;;5072683;28;20370;-70
2022/09/06 07:54:11;;;;;;;;;;;24.80;99.90;;;;;;5072714;28;20459;-70
2022/09/06 07:56:37;;;;;;;;;;;24.80;99.90;;;;;;5054198;28;19904;-69
2022/09/06 07:59:03;;;;;;;;;;;24.80;99.90;;;;;;5072433;28;19908;-71
2022/09/06 08:01:31;;;;;;;;;;;24.80;99.90;;;;;;5054351;28;19954;-69
2022/09/06 08:03:58;;;;;;;;;;;24.70;99.90;;;;;;5054646;28;19908;-70
2022/09/06 08:06:24;;;;;;;;;;;24.70;99.90;;;;;;5054446;28;19912;-71
2022/09/06 08:08:50;;;;;;;;;;;24.60;99.90;;;;;;5072636;28;20365;-71
2022/09/06 08:11:16;;;;;;;;;;;24.60;99.90;;;;;;5072853;28;19912;-70
2022/09/06 08:13:42;;;;;;;;;;;24.60;99.90;;;;;;5072294;28;19919;-70
2022/09/06 08:16:09;;;;;;;;;;;24.60;99.90;;;;;;5054532;28;20290;-71
2022/09/06 08:18:35;;;;;;;;;;;24.60;99.90;;;;;;5072595;28;19904;-70
2022/09/06 08:21:14;;;;;;;;;;;24.60;99.90;;;;;;5054280;28;19909;-70
2022/09/06 08:23:43;;;;;;;;;;;24.70;99.90;;;;;;5017142;28;1464051;-70
2022/09/06 08:26:09;;;;;;;;;;;24.80;99.90;;;;;;5051303;28;20317;-70
2022/09/06 08:28:35;;;;;;;;;;;24.80;99.90;;;;;;5066821;28;20042;-70
2022/09/06 08:31:04;;;;;;;;;;;24.90;99.90;;;;;;5056571;28;19908;-70
2022/09/06 08:33:30;;;;;;;;;;;25.00;99.90;;;;;;5059722;28;20031;-70
2022/09/06 08:35:56;;;;;;;;;;;25.00;99.90;;;;;;5077126;28;19955;-70
2022/09/06 08:38:22;;;;;;;;;;;25.00;99.90;;;;;;5089131;28;19966;-69
2022/09/06 08:40:48;;;;;;;;;;;25.00;99.90;;;;;;5089841;28;19904;-69
2022/09/06 08:43:16;;;;;;;;;;;25.00;99.90;;;;;;5055136;28;19969;-69
2022/09/06 08:45:42;;;;;;;;;;;25.00;99.90;;;;;;5054690;28;19970;-70
2022/09/06 08:48:08;;;;;;;;;;;25.20;99.90;;;;;;5072901;28;19926;-71
2022/09/06 08:50:34;;;;;;;;;;;25.20;99.90;;;;;;5072527;28;20225;-70
2022/09/06 08:53:04;;;;;;;;;;;25.20;99.90;;;;;;5072703;28;19908;-70
2022/09/06 08:55:33;;;;;;;;;;;25.20;99.90;;;;;;5071762;28;19973;-71
2022/09/06 08:58:10;;;;;;;;;;;25.20;99.90;;;;;;5072481;28;19934;-69
2022/09/06 09:00:38;;;;;;;;;;;25.30;99.90;;;;;;5054424;28;19908;-69
2022/09/06 09:03:11;;;;;;;;;;;25.20;99.90;;;;;;5054841;28;19915;-69
2022/09/06 09:05:38;;;;;;;;;;;25.20;99.90;;;;;;5054728;28;19905;-69
2022/09/06 09:08:13;;;;;;;;;;;25.20;99.90;;;;;;5054313;28;20362;-71
2022/09/06 09:10:49;;;;;;;;;;;25.20;99.90;;;;;;5072658;28;19909;-70
2022/09/06 09:13:38;;;;;;;;;;;25.30;99.90;;;;;;5054523;28;19914;-70
2022/09/06 09:16:04;;;;;;;;;;;25.30;99.90;;;;;;5048535;28;20003;-70
2022/09/06 09:18:32;;;;;;;;;;;25.50;99.90;;;;;;5072027;28;19909;-70
2022/09/06 09:20:58;;;;;;;;;;;25.40;99.90;;;;;;5053972;28;19905;-70
2022/09/06 09:23:24;;;;;;;;;;;25.50;99.90;;;;;;5053858;28;19908;-70
2022/09/06 09:25:51;;;;;;;;;;;25.40;99.90;;;;;;5072153;28;19908;-69
2022/09/06 09:28:18;;;;;;;;;;;25.30;99.90;;;;;;5071934;28;19911;-70
2022/09/06 09:30:46;;;;;;;;;;;25.30;99.90;;;;;;5056428;28;19911;-72
2022/09/06 09:33:26;;;;;;;;;;;25.50;99.90;;;;;;5080873;28;19967;-70
2022/09/06 09:35:52;;;;;;;;;;;25.50;99.90;;;;;;5069816;28;19908;-70
2022/09/06 09:38:19;;;;;;;;;;;25.60;99.90;;;;;;5062007;28;19904;-69
2022/09/06 09:40:50;;;;;;;;;;;25.60;99.90;;;;;;5069610;28;19991;-71
2022/09/06 09:43:20;;;;;;;;;;;25.60;99.90;;;;;;5062205;28;19908;-70
2022/09/06 09:46:06;;;;;;;;;;;25.70;99.90;;;;;;5088252;28;19904;-71
2022/09/06 09:48:31;;;;;;;;;;;25.80;99.90;;;;;;5069850;28;19904;-70
2022/09/06 09:51:14;;;;;;;;;;;25.90;99.90;;;;;;5062602;28;19912;-70
2022/09/06 09:53:49;;;;;;;;;;;26.10;99.90;;;;;;5071901;28;19952;-70
2022/09/06 09:56:14;;;;;;;;;;;26.20;99.90;;;;;;5053775;28;19948;-71
2022/09/06 09:58:40;;;;;;;;;;;26.30;99.90;;;;;;5071782;28;19904;-71
2022/09/06 10:01:08;;;;;;;;;;;26.30;99.90;;;;;;5076057;28;19951;-70
2022/09/06 10:03:34;;;;;;;;;;;26.40;99.90;;;;;;5063465;28;19911;-70
2022/09/06 10:06:00;;;;;;;;;;;26.30;99.90;;;;;;5094699;28;20310;-70
2022/09/06 10:08:26;;;;;;;;;;;26.30;99.90;;;;;;5087738;28;19904;-71
2022/09/06 10:10:52;;;;;;;;;;;26.20;99.90;;;;;;5058091;28;19911;-70
2022/09/06 10:13:33;;;;;;;;;;;26.30;99.90;;;;;;5073066;28;19904;-69
2022/09/06 10:15:59;;;;;;;;;;;26.30;99.90;;;;;;5059693;28;19911;-71
2022/09/06 10:18:32;;;;;;;;;;;26.30;99.90;;;;;;5073495;28;19905;-70
2022/09/06 10:21:04;;;;;;;;;;;26.40;99.90;;;;;;5071923;28;19927;-70
2022/09/06 10:23:48;;;;;;;;;;;26.50;99.90;;;;;;5053132;28;20007;-71
2022/09/06 10:26:14;;;;;;;;;;;26.50;99.90;;;;;;5053793;28;20421;-69
2022/09/06 10:28:44;;;;;;;;;;;26.50;99.90;;;;;;5070314;28;19915;-71
2022/09/06 10:31:09;;;;;;;;;;;26.40;99.90;;;;;;5052974;28;19904;-70
2022/09/06 10:33:38;;;;;;;;;;;26.30;99.90;;;;;;5071164;28;19915;-70
2022/09/06 10:36:04;;;;;;;;;;;26.30;99.90;;;;;;5071139;28;19968;-71
2022/09/06 10:38:35;;;;;;;;;;;26.20;99.90;;;;;;5070979;28;19904;-71
2022/09/06 10:41:10;;;;;;;;;;;26.20;99.90;;;;;;5053068;28;19963;-71
2022/09/06 10:43:44;;;;;;;;;;;26.00;99.90;;;;;;5087782;28;19990;-70
2022/09/06 10:46:14;;;;;;;;;;;25.90;99.90;;;;;;5059411;28;19916;-70
2022/09/06 10:48:43;;;;;;;;;;;25.80;99.90;;;;;;5086458;28;19951;-70
2022/09/06 10:51:27;;;;;;;;;;;25.50;99.90;;;;;;5063591;28;20422;-70
2022/09/06 10:53:56;;;;;;;;;;;25.40;99.90;;;;;;5080243;28;19916;-73
2022/09/06 10:56:36;;;;;;;;;;;25.30;99.90;;;;;;5054113;28;19908;-70
2022/09/06 10:59:06;;;;;;;;;;;25.30;99.90;;;;;;5053292;28;20294;-71
2022/09/06 11:01:37;;;;;;;;;;;25.30;99.90;;;;;;5061208;28;19953;-70
2022/09/06 11:04:08;;;;;;;;;;;25.40;99.90;;;;;;5083021;28;19913;-71
2022/09/06 11:06:35;;;;;;;;;;;25.50;99.90;;;;;;5073538;28;19908;-71
2022/09/06 11:09:07;;;;;;;;;;;25.50;99.90;;;;;;5078405;28;19911;-69
2022/09/06 11:11:52;;;;;;;;;;;25.60;99.90;;;;;;5052786;28;20369;-69
2022/09/06 11:14:19;;;;;;;;;;;25.80;99.90;;;;;;5070897;28;19915;-70
2022/09/06 11:16:50;;;;;;;;;;;25.90;99.90;;;;;;5070979;28;19904;-70
2022/09/06 11:19:25;;;;;;;;;;;26.10;99.90;;;;;;5074169;28;19939;-71
2022/09/06 11:22:10;;;;;;;;;;;26.30;99.90;;;;;;5074043;28;19904;-69
2022/09/06 11:24:54;;;;;;;;;;;26.50;99.90;;;;;;5056022;28;19989;-69
2022/09/06 11:27:19;;;;;;;;;;;26.50;99.90;;;;;;5075648;28;19908;-71
2022/09/06 11:29:46;;;;;;;;;;;26.50;99.90;;;;;;5084606;28;19910;-70
2022/09/06 11:32:32;;;;;;;;;;;26.40;99.90;;;;;;5074960;28;20369;-70
2022/09/06 11:34:59;;;;;;;;;;;26.40;99.90;;;;;;5074233;28;19968;-70
2022/09/06 11:37:26;;;;;;;;;;;26.50;99.90;;;;;;5056643;28;19904;-70
2022/09/06 11:40:21;;;;;;;;;;;26.50;99.90;;;;;;5075161;28;19972;-71
2022/09/06 11:42:47;;;;;;;;;;;26.50;99.90;;;;;;5055157;28;20370;-70
2022/09/06 11:45:22;;;;;;;;;;;26.60;99.90;;;;;;5076555;28;19935;-71
2022/09/06 11:47:51;;;;;;;;;;;26.60;99.90;;;;;;5058741;28;19904;-70
2022/09/06 11:50:17;;;;;;;;;;;26.50;99.90;;;;;;5074378;28;20289;-71
2022/09/06 11:52:55;;;;;;;;;;;26.40;99.90;;;;;;5074345;28;19908;-70
2022/09/06 11:55:23;;;;;;;;;;;26.30;99.90;;;;;;5055345;28;19908;-70
2022/09/06 11:57:53;;;;;;;;;;;26.40;99.90;;;;;;5055570;28;20293;-70
2022/09/06 12:00:22;;;;;;;;;;;26.50;99.90;;;;;;5074009;28;19951;-70
2022/09/06 12:02:48;;;;;;;;;;;26.80;99.90;;;;;;5081787;28;19943;-71
2022/09/06 12:05:21;;;;;;;;;;;26.90;99.90;;;;;;5070942;28;19987;-70
2022/09/06 12:08:06;;;;;;;;;;;26.90;99.90;;;;;;5056445;28;19982;-71
2022/09/06 12:10:45;;;;;;;;;;;27.10;99.90;;;;;;5071328;28;19915;-70
2022/09/06 12:13:30;;;;;;;;;;;27.20;99.90;;;;;;5076285;28;19908;-70
2022/09/06 12:15:55;;;;;;;;;;;27.10;99.90;;;;;;5077532;28;19962;-71
2022/09/06 12:18:53;;;;;;;;;;;27.30;99.90;;;;;;5076807;28;19912;-71
2022/09/06 12:21:39;;;;;;;;;;;27.40;99.90;;;;;;5039411;28;19904;-70
2022/09/06 12:24:06;;;;;;;;;;;27.50;99.90;;;;;;5091664;28;19911;-71
2022/09/06 12:26:49;;;;;;;;;;;27.70;99.90;;;;;;5090670;28;19904;-68
2022/09/06 12:29:16;;;;;;;;;;;27.50;99.90;;;;;;5076799;28;19955;-71
2022/09/06 12:31:44;;;;;;;;;;;27.50;99.90;;;;;;5094985;28;19926;-70
2022/09/06 12:34:12;;;;;;;;;;;27.70;99.90;;;;;;5112482;28;20347;-70
2022/09/06 12:36:46;;;;;;;;;;;27.70;99.90;;;;;;5074559;28;20564;-70
2022/09/06 12:39:11;;;;;;;;;;;27.60;99.90;;;;;;5090383;28;19959;-71
2022/09/06 12:41:42;;;;;;;;;;;27.50;99.90;;;;;;5091278;28;19908;-70
2022/09/06 12:44:08;;;;;;;;;;;27.60;99.90;;;;;;5077175;28;19947;-68
2022/09/06 12:46:34;;;;;;;;;;;27.70;99.90;;;;;;5085354;28;19922;-70
2022/09/06 12:49:03;;;;;;;;;;;27.90;99.90;;;;;;5074012;28;19908;-68
2022/09/06 12:51:29;;;;;;;;;;;27.90;99.90;;;;;;5071988;28;19896;-71
2022/09/06 12:53:58;;;;;;;;;;;27.90;99.90;;;;;;5089531;28;19922;-70
2022/09/06 12:56:25;;;;;;;;;;;27.90;99.90;;;;;;5070359;28;19908;-70
2022/09/06 12:58:51;;;;;;;;;;;27.90;99.90;;;;;;5080137;28;19967;-71
2022/09/06 13:01:17;;;;;;;;;;;27.90;99.90;;;;;;5075621;28;19918;-71
2022/09/06 13:03:44;;;;;;;;;;;27.80;99.90;;;;;;5069620;28;19912;-71
2022/09/06 13:06:13;;;;;;;;;;;27.80;99.90;;;;;;5072275;28;19912;-70
2022/09/06 13:08:39;;;;;;;;;;;27.80;99.90;;;;;;5069943;28;20394;-70
2022/09/06 13:11:08;;;;;;;;;;;27.80;99.90;;;;;;5071878;28;19935;-71
2022/09/06 13:13:33;;;;;;;;;;;27.80;99.90;;;;;;5083934;28;19916;-71
2022/09/06 13:15:59;;;;;;;;;;;27.90;99.90;;;;;;5092195;28;19915;-70
2022/09/06 13:18:32;;;;;;;;;;;27.80;99.90;;;;;;5069318;28;19947;-70
2022/09/06 13:20:59;;;;;;;;;;;27.70;99.90;;;;;;5069412;28;19908;-69
2022/09/06 13:23:25;;;;;;;;;;;27.60;99.90;;;;;;5086551;28;20013;-69
2022/09/06 13:25:51;;;;;;;;;;;27.50;99.90;;;;;;5064156;28;19916;-71
2022/09/06 13:28:24;;;;;;;;;;;27.40;99.90;;;;;;5051136;28;19915;-70
2022/09/06 13:31:08;;;;;;;;;;;27.30;99.90;;;;;;5077222;28;19911;-70
2022/09/06 13:33:34;;;;;;;;;;;27.20;99.90;;;;;;5070915;28;19987;-70
2022/09/06 13:36:20;;;;;;;;;;;27.10;99.90;;;;;;5071933;28;20356;-70
2022/09/06 13:38:46;;;;;;;;;;;27.00;99.90;;;;;;5087777;28;20309;-72
2022/09/06 13:41:24;;;;;;;;;;;27.10;99.90;;;;;;5053098;28;19958;-69
2022/09/06 13:44:15;;;;;;;;;;;27.10;99.90;;;;;;5071489;28;20003;-72
2022/09/06 13:46:41;;;;;;;;;;;27.30;99.90;;;;;;5066540;28;19909;-70
2022/09/06 13:49:07;;;;;;;;;;;27.20;99.90;;;;;;5071234;28;19962;-70
2022/09/06 13:51:33;;;;;;;;;;;27.20;99.90;;;;;;5070927;28;19976;-70
2022/09/06 13:54:16;;;;;;;;;;;27.30;99.90;;;;;;5063400;28;19956;-70
2022/09/06 13:56:45;;;;;;;;;;;27.30;99.90;;;;;;5071096;28;20067;-70
2022/09/06 13:59:11;;;;;;;;;;;27.20;99.90;;;;;;5052212;28;19944;-72
2022/09/06 14:01:37;;;;;;;;;;;27.20;99.90;;;;;;5070198;28;19908;-71
2022/09/06 14:04:03;;;;;;;;;;;27.30;99.90;;;;;;5053987;28;19915;-70
2022/09/06 14:06:28;;;;;;;;;;;27.40;99.90;;;;;;5067183;28;20015;-68
2022/09/06 14:08:54;;;;;;;;;;;27.30;99.90;;;;;;5068253;28;19916;-72
2022/09/06 14:11:20;;;;;;;;;;;27.40;99.90;;;;;;5070733;28;19905;-70
2022/09/06 14:13:45;;;;;;;;;;;27.40;99.90;;;;;;5071091;28;19920;-70
2022/09/06 14:16:11;;;;;;;;;;;27.50;99.90;;;;;;5052177;28;19908;-72
2022/09/06 14:18:36;;;;;;;;;;;27.40;99.90;;;;;;5053582;28;20003;-71
2022/09/06 14:21:04;;;;;;;;;;;27.50;99.90;;;;;;5053421;28;19908;-70
2022/09/06 14:23:29;;;;;;;;;;;27.40;99.90;;;;;;5069062;28;19908;-69
2022/09/06 14:25:56;;;;;;;;;;;27.30;99.90;;;;;;5070794;28;19909;-71